sensor_id;sensor_type;location;lat;lon;timestamp;temperature;humidity
19888;DHT22;10106;51.332;12.336;2023-02-28T00:00:45;0.80;99.90
19888;DHT22;10106;51.332;12.336;2023-02-28T00:03:11;0.80;99.90
19888;DHT22;10106;51.332;12.336;2023-02-28T00:05:37;0.70;99.90
19888;DHT22;10106;51.332;12.336;2023-02-28T00:08:03;0.80;99.90
19888;DHT22;10106;51.332;12.336;2023-02-28T00:10:30;0.70;99.90
19888;DHT22;10106;51.332;12.336;2023-02-28T00:13:02;0.70;99.90
19888;DHT22;10106;51.332;12.336;2023-02-28T00:15:28;0.70;99.90
19888;DHT22;10106;51.332;12.336;2023-02-28T00:17:53;0.70;99.90
19888;DHT22;10106;51.332;12.336;2023-02-28T00:20:20;0.70;99.90
19888;DHT22;10106;51.332;12.336;2023-02-28T00:22:48;0.70;99.90
19888;DHT22;10106;51.332;12.336;2023-02-28T00:25:16;0.70;99.90
19888;DHT22;10106;51.332;12.336;2023-02-28T00:27:43;0.70;99.90
19888;DHT22;10106;51.332;12.336;2023-02-28T00:30:12;0.70;99.90
19888;DHT22;10106;51.332;12.336;2023-02-28T00:32:38;0.70;99.90
19888;DHT22;10106;51.332;12.336;2023-02-28T00:35:05;0.70;99.90
19888;DHT22;10106;51.332;12.336;2023-02-28T00:37:31;0.70;99.90
19888;DHT22;10106;51.332;12.336;2023-02-28T00:39:56;0.70;99.90
19888;DHT22;10106;51.332;12.336;2023-02-28T00:42:22;0.70;99.90
19888;DHT22;10106;51.332;12.336;2023-02-28T00:44:49;0.70;99.90
19888;DHT22;10106;51.332;12.336;2023-02-28T00:47:15;0.70;99.90
19888;DHT22;10106;51.332;12.336;2023-02-28T00:49:41;0.70;99.90
19888;DHT22;10106;51.332;12.336;2023-02-28T00:52:07;0.70;99.90
19888;DHT22;10106;51.332;12.336;2023-02-28T00:54:33;0.80;99.90
19888;DHT22;10106;51.332;12.336;2023-02-28T00:56:59;0.80;99.90
19888;DHT22;10106;51.332;12.336;2023-02-28T00:59:24;0.80;99.90
19888;DHT22;10106;51.332;12.336;2023-02-28T01:01:50;0.80;99.90
19888;DHT22;10106;51.332;12.336;2023-02-28T01:04:16;0.80;99.90
19888;DHT22;10106;51.332;12.336;2023-02-28T01:06:42;0.70;99.90
19888;DHT22;10106;51.332;12.336;2023-02-28T01:09:08;0.70;99.90
19888;DHT22;10106;51.332;12.336;2023-02-28T01:11:34;0.70;99.90
19888;DHT22;10106;51.332;12.336;2023-02-28T01:14:01;0.70;99.90
19888;DHT22;10106;51.332;12.336;2023-02-28T01:16:27;0.70;99.90
19888;DHT22;10106;51.332;12.336;2023-02-28T01:18:53;0.70;99.90
19888;DHT22;10106;51.332;12.336;2023-02-28T01:21:20;0.70;99.90
19888;DHT22;10106;51.332;12.336;2023-02-28T01:23:47;0.70;99.90
19888;DHT22;10106;51.332;12.336;2023-02-28T01:26:15;0.70;99.90
19888;DHT22;10106;51.332;12.336;2023-02-28T01:28:41;0.70;99.90
19888;DHT22;10106;51.332;12.336;2023-02-28T01:31:08;0.70;99.90
19888;DHT22;10106;51.332;12.336;2023-02-28T01:33:34;0.70;99.90
19888;DHT22;10106;51.332;12.336;2023-02-28T01:36:02;0.70;99.90
19888;DHT22;10106;51.332;12.336;2023-02-28T01:38:28;0.70;99.90
19888;DHT22;10106;51.332;12.336;2023-02-28T01:40:54;0.70;99.90
19888;DHT22;10106;51.332;12.336;2023-02-28T01:43:27;0.70;99.90
19888;DHT22;10106;51.332;12.336;2023-02-28T01:45:54;0.70;99.90
19888;DHT22;10106;51.332;12.336;2023-02-28T01:48:30;0.70;99.90
19888;DHT22;10106;51.332;12.336;2023-02-28T01:51:02;0.70;99.90
19888;DHT22;10106;51.332;12.336;2023-02-28T01:53:36;0.70;99.90
19888;DHT22;10106;51.332;12.336;2023-02-28T01:56:05;0.60;99.90
19888;DHT22;10106;51.332;12.336;2023-02-28T01:58:32;0.60;99.90
19888;DHT22;10106;51.332;12.336;2023-02-28T02:00:58;0.60;99.90
19888;DHT22;10106;51.332;12.336;2023-02-28T02:03:24;0.50;99.90
19888;DHT22;10106;51.332;12.336;2023-02-28T02:05:49;0.50;99.90
19888;DHT22;10106;51.332;12.336;2023-02-28T02:08:19;0.50;99.90
19888;DHT22;10106;51.332;12.336;2023-02-28T02:10:58;0.50;99.90
19888;DHT22;10106;51.332;12.336;2023-02-28T02:16:33;0.50;99.90
19888;DHT22;10106;51.332;12.336;2023-02-28T02:38:11;0.40;99.90
19888;DHT22;10106;51.332;12.336;2023-02-28T02:41:08;0.40;99.90
19888;DHT22;10106;51.332;12.336;2023-02-28T02:46:16;0.40;99.90
19888;DHT22;10106;51.332;12.336;2023-02-28T02:48:44;0.40;99.90
19888;DHT22;10106;51.332;12.336;2023-02-28T02:51:14;0.40;99.90
19888;DHT22;10106;51.332;12.336;2023-02-28T02:53:49;0.30;99.90
19888;DHT22;10106;51.332;12.336;2023-02-28T02:56:23;0.30;99.90
19888;DHT22;10106;51.332;12.336;2023-02-28T02:58:51;0.20;99.90
19888;DHT22;10106;51.332;12.336;2023-02-28T03:01:22;0.10;99.90
19888;DHT22;10106;51.332;12.336;2023-02-28T03:04:01;0.00;99.90
19888;DHT22;10106;51.332;12.336;2023-02-28T03:06:28;0.00;99.90
19888;DHT22;10106;51.332;12.336;2023-02-28T03:08:53;0.00;99.90
19888;DHT22;10106;51.332;12.336;2023-02-28T03:11:19;-0.10;99.90
19888;DHT22;10106;51.332;12.336;2023-02-28T03:16:40;-0.10;99.90
19888;DHT22;10106;51.332;12.336;2023-02-28T03:25:18;-0.20;99.90
19888;DHT22;10106;51.332;12.336;2023-02-28T03:30:39;-0.20;99.90
19888;DHT22;10106;51.332;12.336;2023-02-28T03:35:59;-0.10;99.90
19888;DHT22;10106;51.332;12.336;2023-02-28T03:38:41;-0.20;99.90
19888;DHT22;10106;51.332;12.336;2023-02-28T03:41:15;-0.10;99.90
19888;DHT22;10106;51.332;12.336;2023-02-28T03:43:47;-0.20;99.90
19888;DHT22;10106;51.332;12.336;2023-02-28T03:46:17;-0.10;99.90
19888;DHT22;10106;51.332;12.336;2023-02-28T03:49:17;-0.10;99.90
19888;DHT22;10106;51.332;12.336;2023-02-28T03:51:46;-0.20;99.90
19888;DHT22;10106;51.332;12.336;2023-02-28T03:54:17;-0.20;99.90
19888;DHT22;10106;51.332;12.336;2023-02-28T03:56:56;-0.20;99.90
19888;DHT22;10106;51.332;12.336;2023-02-28T03:59:34;-0.30;99.90
19888;DHT22;10106;51.332;12.336;2023-02-28T04:02:02;-0.30;99.90
19888;DHT22;10106;51.332;12.336;2023-02-28T04:04:28;-0.30;99.90
19888;DHT22;10106;51.332;12.336;2023-02-28T04:07:02;-0.30;99.90
19888;DHT22;10106;51.332;12.336;2023-02-28T04:09:27;-0.30;99.90
19888;DHT22;10106;51.332;12.336;2023-02-28T04:11:53;-0.30;99.90
19888;DHT22;10106;51.332;12.336;2023-02-28T04:14:21;-0.30;99.90
19888;DHT22;10106;51.332;12.336;2023-02-28T04:16:47;-0.30;99.90
19888;DHT22;10106;51.332;12.336;2023-02-28T04:19:13;-0.30;99.90
19888;DHT22;10106;51.332;12.336;2023-02-28T04:21:44;-0.20;99.90
19888;DHT22;10106;51.332;12.336;2023-02-28T04:24:13;-0.20;99.90
19888;DHT22;10106;51.332;12.336;2023-02-28T04:26:41;-0.10;99.90
19888;DHT22;10106;51.332;12.336;2023-02-28T04:29:09;-0.10;99.90
19888;DHT22;10106;51.332;12.336;2023-02-28T04:31:35;-0.10;99.90
19888;DHT22;10106;51.332;12.336;2023-02-28T04:34:01;-0.10;99.90
19888;DHT22;10106;51.332;12.336;2023-02-28T04:36:27;-0.10;99.90
19888;DHT22;10106;51.332;12.336;2023-02-28T04:38:53;0.00;99.90
19888;DHT22;10106;51.332;12.336;2023-02-28T04:41:19;0.00;99.90
19888;DHT22;10106;51.332;12.336;2023-02-28T04:43:45;0.00;99.90
19888;DHT22;10106;51.332;12.336;2023-02-28T04:46:11;0.00;99.90
19888;DHT22;10106;51.332;12.336;2023-02-28T04:48:38;-0.10;99.90
19888;DHT22;10106;51.332;12.336;2023-02-28T04:51:07;-0.10;99.90
19888;DHT22;10106;51.332;12.336;2023-02-28T04:53:33;-0.10;99.90
19888;DHT22;10106;51.332;12.336;2023-02-28T04:56:00;-0.20;99.90
19888;DHT22;10106;51.332;12.336;2023-02-28T04:58:26;-0.20;99.90
19888;DHT22;10106;51.332;12.336;2023-02-28T05:00:52;-0.30;99.90
19888;DHT22;10106;51.332;12.336;2023-02-28T05:03:19;-0.30;99.90
19888;DHT22;10106;51.332;12.336;2023-02-28T05:05:46;-0.40;99.90
19888;DHT22;10106;51.332;12.336;2023-02-28T05:08:12;-0.30;99.90
19888;DHT22;10106;51.332;12.336;2023-02-28T05:10:38;-0.30;99.90
19888;DHT22;10106;51.332;12.336;2023-02-28T05:13:04;-0.30;99.90
19888;DHT22;10106;51.332;12.336;2023-02-28T05:15:29;-0.30;99.90
19888;DHT22;10106;51.332;12.336;2023-02-28T05:17:55;-0.30;99.90
19888;DHT22;10106;51.332;12.336;2023-02-28T05:20:21;-0.30;99.90
19888;DHT22;10106;51.332;12.336;2023-02-28T05:22:46;-0.20;99.90
19888;DHT22;10106;51.332;12.336;2023-02-28T05:25:19;-0.20;99.90
19888;DHT22;10106;51.332;12.336;2023-02-28T05:27:46;-0.20;99.90
19888;DHT22;10106;51.332;12.336;2023-02-28T05:30:12;-0.20;99.90
19888;DHT22;10106;51.332;12.336;2023-02-28T05:32:39;-0.30;99.90
19888;DHT22;10106;51.332;12.336;2023-02-28T05:35:08;-0.20;99.90
19888;DHT22;10106;51.332;12.336;2023-02-28T05:37:34;-0.30;99.90
19888;DHT22;10106;51.332;12.336;2023-02-28T05:40:01;-0.20;99.90
19888;DHT22;10106;51.332;12.336;2023-02-28T05:42:27;-0.20;99.90
19888;DHT22;10106;51.332;12.336;2023-02-28T05:44:52;-0.30;99.90
19888;DHT22;10106;51.332;12.336;2023-02-28T05:47:18;-0.20;99.90
19888;DHT22;10106;51.332;12.336;2023-02-28T05:49:44;-0.20;99.90
19888;DHT22;10106;51.332;12.336;2023-02-28T05:52:09;-0.20;99.90
19888;DHT22;10106;51.332;12.336;2023-02-28T05:54:36;-0.30;99.90
19888;DHT22;10106;51.332;12.336;2023-02-28T05:57:01;-0.30;99.90
19888;DHT22;10106;51.332;12.336;2023-02-28T05:59:27;-0.30;99.90
19888;DHT22;10106;51.332;12.336;2023-02-28T06:07:03;-0.20;99.90
19888;DHT22;10106;51.332;12.336;2023-02-28T06:09:29;-0.20;99.90
19888;DHT22;10106;51.332;12.336;2023-02-28T06:11:57;-0.20;99.90
19888;DHT22;10106;51.332;12.336;2023-02-28T06:14:23;-0.10;99.90
19888;DHT22;10106;51.332;12.336;2023-02-28T06:16:49;0.20;99.90
19888;DHT22;10106;51.332;12.336;2023-02-28T06:19:14;0.50;99.90
19888;DHT22;10106;51.332;12.336;2023-02-28T06:21:41;1.20;99.90
19888;DHT22;10106;51.332;12.336;2023-02-28T06:24:07;1.70;99.90
19888;DHT22;10106;51.332;12.336;2023-02-28T06:26:33;2.00;99.90
19888;DHT22;10106;51.332;12.336;2023-02-28T06:28:59;2.30;99.90
19888;DHT22;10106;51.332;12.336;2023-02-28T06:31:26;2.80;99.90
19888;DHT22;10106;51.332;12.336;2023-02-28T06:33:54;3.30;99.90
19888;DHT22;10106;51.332;12.336;2023-02-28T06:36:20;3.50;99.90
19888;DHT22;10106;51.332;12.336;2023-02-28T06:38:46;3.70;99.90
19888;DHT22;10106;51.332;12.336;2023-02-28T06:41:16;3.90;99.90
19888;DHT22;10106;51.332;12.336;2023-02-28T06:43:43;4.10;99.90
19888;DHT22;10106;51.332;12.336;2023-02-28T06:46:12;4.10;99.90
19888;DHT22;10106;51.332;12.336;2023-02-28T06:48:39;3.90;99.90
19888;DHT22;10106;51.332;12.336;2023-02-28T06:53:42;4.60;99.90
19888;DHT22;10106;51.332;12.336;2023-02-28T06:56:10;5.40;99.90
19888;DHT22;10106;51.332;12.336;2023-02-28T06:58:37;6.30;99.90
19888;DHT22;10106;51.332;12.336;2023-02-28T07:01:03;7.00;99.90
19888;DHT22;10106;51.332;12.336;2023-02-28T07:03:29;7.10;99.90
19888;DHT22;10106;51.332;12.336;2023-02-28T07:05:55;7.60;99.90
19888;DHT22;10106;51.332;12.336;2023-02-28T07:08:22;7.70;99.20
19888;DHT22;10106;51.332;12.336;2023-02-28T07:10:52;8.40;98.40
19888;DHT22;10106;51.332;12.336;2023-02-28T07:13:18;8.00;96.10
19888;DHT22;10106;51.332;12.336;2023-02-28T07:15:44;7.60;96.40
19888;DHT22;10106;51.332;12.336;2023-02-28T07:18:10;8.10;96.50
19888;DHT22;10106;51.332;12.336;2023-02-28T07:20:35;8.90;95.30
19888;DHT22;10106;51.332;12.336;2023-02-28T07:23:01;10.10;93.30
19888;DHT22;10106;51.332;12.336;2023-02-28T07:25:27;10.90;91.10
19888;DHT22;10106;51.332;12.336;2023-02-28T07:27:54;11.70;88.40
19888;DHT22;10106;51.332;12.336;2023-02-28T07:30:20;12.00;84.00
19888;DHT22;10106;51.332;12.336;2023-02-28T07:32:46;13.10;77.90
19888;DHT22;10106;51.332;12.336;2023-02-28T07:35:12;13.30;77.30
19888;DHT22;10106;51.332;12.336;2023-02-28T07:37:38;13.70;71.70
19888;DHT22;10106;51.332;12.336;2023-02-28T07:40:06;14.30;69.50
19888;DHT22;10106;51.332;12.336;2023-02-28T07:42:35;14.40;65.80
19888;DHT22;10106;51.332;12.336;2023-02-28T07:45:01;14.30;63.10
19888;DHT22;10106;51.332;12.336;2023-02-28T07:47:28;14.60;60.00
19888;DHT22;10106;51.332;12.336;2023-02-28T07:49:54;14.50;59.20
19888;DHT22;10106;51.332;12.336;2023-02-28T07:52:19;14.70;60.60
19888;DHT22;10106;51.332;12.336;2023-02-28T07:54:45;15.70;57.90
19888;DHT22;10106;51.332;12.336;2023-02-28T07:57:11;15.60;55.00
19888;DHT22;10106;51.332;12.336;2023-02-28T07:59:36;14.60;55.70
19888;DHT22;10106;51.332;12.336;2023-02-28T08:02:02;14.00;54.40
19888;DHT22;10106;51.332;12.336;2023-02-28T08:04:28;13.90;54.60
19888;DHT22;10106;51.332;12.336;2023-02-28T08:06:56;14.30;55.10
19888;DHT22;10106;51.332;12.336;2023-02-28T08:09:22;14.60;53.80
19888;DHT22;10106;51.332;12.336;2023-02-28T08:11:48;15.00;53.70
19888;DHT22;10106;51.332;12.336;2023-02-28T08:14:13;15.30;51.90
19888;DHT22;10106;51.332;12.336;2023-02-28T08:16:39;15.70;51.00
19888;DHT22;10106;51.332;12.336;2023-02-28T08:19:05;15.40;48.30
19888;DHT22;10106;51.332;12.336;2023-02-28T08:21:30;14.90;48.00
19888;DHT22;10106;51.332;12.336;2023-02-28T08:23:56;15.30;48.20
19888;DHT22;10106;51.332;12.336;2023-02-28T08:26:22;14.60;46.80
19888;DHT22;10106;51.332;12.336;2023-02-28T08:28:48;14.80;48.20
19888;DHT22;10106;51.332;12.336;2023-02-28T08:31:16;15.50;47.90
19888;DHT22;10106;51.332;12.336;2023-02-28T08:33:42;15.60;46.90
19888;DHT22;10106;51.332;12.336;2023-02-28T08:36:08;16.20;45.10
19888;DHT22;10106;51.332;12.336;2023-02-28T08:38:35;15.70;44.40
19888;DHT22;10106;51.332;12.336;2023-02-28T08:41:03;15.90;44.20
19888;DHT22;10106;51.332;12.336;2023-02-28T08:43:31;15.60;44.00
19888;DHT22;10106;51.332;12.336;2023-02-28T08:45:57;15.60;43.60
19888;DHT22;10106;51.332;12.336;2023-02-28T08:48:28;15.60;43.70
19888;DHT22;10106;51.332;12.336;2023-02-28T08:51:04;15.80;43.40
19888;DHT22;10106;51.332;12.336;2023-02-28T08:53:30;15.60;42.50
19888;DHT22;10106;51.332;12.336;2023-02-28T08:56:01;15.50;43.60
19888;DHT22;10106;51.332;12.336;2023-02-28T08:58:27;16.20;42.40
19888;DHT22;10106;51.332;12.336;2023-02-28T09:00:53;14.30;39.40
19888;DHT22;10106;51.332;12.336;2023-02-28T09:03:19;14.50;40.90
19888;DHT22;10106;51.332;12.336;2023-02-28T09:05:59;14.80;41.90
19888;DHT22;10106;51.332;12.336;2023-02-28T09:08:27;15.30;41.80
19888;DHT22;10106;51.332;12.336;2023-02-28T09:10:53;14.00;40.70
19888;DHT22;10106;51.332;12.336;2023-02-28T09:13:20;13.90;42.00
19888;DHT22;10106;51.332;12.336;2023-02-28T09:15:46;13.30;42.50
19888;DHT22;10106;51.332;12.336;2023-02-28T09:18:11;12.10;43.30
19888;DHT22;10106;51.332;12.336;2023-02-28T09:20:39;13.80;43.90
19888;DHT22;10106;51.332;12.336;2023-02-28T09:23:06;13.50;43.40
19888;DHT22;10106;51.332;12.336;2023-02-28T09:25:31;14.50;44.30
19888;DHT22;10106;51.332;12.336;2023-02-28T09:27:57;15.70;42.80
19888;DHT22;10106;51.332;12.336;2023-02-28T09:30:23;16.80;42.20
19888;DHT22;10106;51.332;12.336;2023-02-28T09:32:48;17.20;39.00
19888;DHT22;10106;51.332;12.336;2023-02-28T09:35:22;12.70;40.40
19888;DHT22;10106;51.332;12.336;2023-02-28T09:37:49;11.40;44.20
19888;DHT22;10106;51.332;12.336;2023-02-28T09:40:18;11.40;46.00
19888;DHT22;10106;51.332;12.336;2023-02-28T09:42:46;12.30;46.10
19888;DHT22;10106;51.332;12.336;2023-02-28T09:47:56;12.20;45.00
19888;DHT22;10106;51.332;12.336;2023-02-28T09:50:35;13.20;43.50
19888;DHT22;10106;51.332;12.336;2023-02-28T09:53:15;12.90;42.50
19888;DHT22;10106;51.332;12.336;2023-02-28T09:55:45;11.70;44.10
19888;DHT22;10106;51.332;12.336;2023-02-28T10:01:12;11.10;43.70
19888;DHT22;10106;51.332;12.336;2023-02-28T10:03:50;8.60;47.20
19888;DHT22;10106;51.332;12.336;2023-02-28T10:06:26;7.80;49.50
19888;DHT22;10106;51.332;12.336;2023-02-28T10:09:03;6.50;51.00
19888;DHT22;10106;51.332;12.336;2023-02-28T10:11:32;6.10;52.70
19888;DHT22;10106;51.332;12.336;2023-02-28T10:14:13;6.20;53.90
19888;DHT22;10106;51.332;12.336;2023-02-28T10:16:44;5.90;53.10
19888;DHT22;10106;51.332;12.336;2023-02-28T10:19:33;5.80;54.00
19888;DHT22;10106;51.332;12.336;2023-02-28T10:22:05;5.70;55.00
19888;DHT22;10106;51.332;12.336;2023-02-28T10:29:46;5.10;55.30
19888;DHT22;10106;51.332;12.336;2023-02-28T10:32:39;4.80;56.60
19888;DHT22;10106;51.332;12.336;2023-02-28T10:37:41;4.50;57.90
19888;DHT22;10106;51.332;12.336;2023-02-28T10:43:17;4.40;58.50
19888;DHT22;10106;51.332;12.336;2023-02-28T10:45:55;4.50;58.60
19888;DHT22;10106;51.332;12.336;2023-02-28T10:58:28;4.10;62.10
19888;DHT22;10106;51.332;12.336;2023-02-28T11:00:54;4.30;61.80
19888;DHT22;10106;51.332;12.336;2023-02-28T11:05:57;4.70;61.40
19888;DHT22;10106;51.332;12.336;2023-02-28T11:08:22;4.80;61.60
19888;DHT22;10106;51.332;12.336;2023-02-28T11:11:01;4.60;62.30
19888;DHT22;10106;51.332;12.336;2023-02-28T11:13:35;4.20;62.30
19888;DHT22;10106;51.332;12.336;2023-02-28T11:16:09;4.20;63.40
19888;DHT22;10106;51.332;12.336;2023-02-28T11:21:08;4.40;64.20
19888;DHT22;10106;51.332;12.336;2023-02-28T11:23:36;4.40;63.40
19888;DHT22;10106;51.332;12.336;2023-02-28T11:26:05;4.30;63.50
19888;DHT22;10106;51.332;12.336;2023-02-28T11:28:39;4.20;63.80
19888;DHT22;10106;51.332;12.336;2023-02-28T11:33:41;4.50;64.50
19888;DHT22;10106;51.332;12.336;2023-02-28T11:36:28;4.40;64.20
19888;DHT22;10106;51.332;12.336;2023-02-28T11:38:56;4.10;64.50
19888;DHT22;10106;51.332;12.336;2023-02-28T11:41:37;4.00;65.10
19888;DHT22;10106;51.332;12.336;2023-02-28T11:46:56;4.40;65.30
19888;DHT22;10106;51.332;12.336;2023-02-28T11:50:04;4.40;65.80
19888;DHT22;10106;51.332;12.336;2023-02-28T11:52:43;4.70;66.20
19888;DHT22;10106;51.332;12.336;2023-02-28T11:55:35;4.80;66.00
19888;DHT22;10106;51.332;12.336;2023-02-28T11:59:08;4.80;66.40
19888;DHT22;10106;51.332;12.336;2023-02-28T12:09:42;4.80;67.50
19888;DHT22;10106;51.332;12.336;2023-02-28T12:23:10;4.20;69.80
19888;DHT22;10106;51.332;12.336;2023-02-28T12:26:06;4.20;69.40
19888;DHT22;10106;51.332;12.336;2023-02-28T12:28:40;4.20;69.00
19888;DHT22;10106;51.332;12.336;2023-02-28T12:31:18;4.30;69.10
19888;DHT22;10106;51.332;12.336;2023-02-28T12:33:50;4.40;69.00
19888;DHT22;10106;51.332;12.336;2023-02-28T12:36:19;4.40;69.50
19888;DHT22;10106;51.332;12.336;2023-02-28T12:38:54;4.30;69.00
19888;DHT22;10106;51.332;12.336;2023-02-28T12:42:07;4.30;68.90
19888;DHT22;10106;51.332;12.336;2023-02-28T12:44:52;4.30;69.10
19888;DHT22;10106;51.332;12.336;2023-02-28T12:47:19;4.30;69.00
19888;DHT22;10106;51.332;12.336;2023-02-28T12:52:18;4.20;69.90
19888;DHT22;10106;51.332;12.336;2023-02-28T12:54:55;4.30;70.10
19888;DHT22;10106;51.332;12.336;2023-02-28T13:00:25;4.10;70.20
19888;DHT22;10106;51.332;12.336;2023-02-28T13:10:58;4.20;71.90
19888;DHT22;10106;51.332;12.336;2023-02-28T13:13:25;4.30;73.30
19888;DHT22;10106;51.332;12.336;2023-02-28T13:18:31;4.30;73.00
19888;DHT22;10106;51.332;12.336;2023-02-28T13:20:58;4.30;73.20
19888;DHT22;10106;51.332;12.336;2023-02-28T13:26:05;4.40;73.50
19888;DHT22;10106;51.332;12.336;2023-02-28T13:31:29;4.50;74.80
19888;DHT22;10106;51.332;12.336;2023-02-28T13:36:32;4.40;74.50
19888;DHT22;10106;51.332;12.336;2023-02-28T13:47:39;4.30;74.50
19888;DHT22;10106;51.332;12.336;2023-02-28T14:06:54;4.10;76.20
19888;DHT22;10106;51.332;12.336;2023-02-28T14:10:08;4.10;75.30
19888;DHT22;10106;51.332;12.336;2023-02-28T14:15:39;4.10;76.20
19888;DHT22;10106;51.332;12.336;2023-02-28T14:18:34;4.00;76.60
19888;DHT22;10106;51.332;12.336;2023-02-28T14:35:22;4.00;77.80
19888;DHT22;10106;51.332;12.336;2023-02-28T14:37:53;4.00;78.10
19888;DHT22;10106;51.332;12.336;2023-02-28T14:42:55;3.80;78.50
19888;DHT22;10106;51.332;12.336;2023-02-28T14:45:22;3.80;79.00
19888;DHT22;10106;51.332;12.336;2023-02-28T14:47:50;3.90;78.90
19888;DHT22;10106;51.332;12.336;2023-02-28T14:50:31;3.80;79.30
19888;DHT22;10106;51.332;12.336;2023-02-28T14:52:57;3.80;79.70
19888;DHT22;10106;51.332;12.336;2023-02-28T14:55:31;3.80;80.70
19888;DHT22;10106;51.332;12.336;2023-02-28T14:58:00;3.80;80.80
19888;DHT22;10106;51.332;12.336;2023-02-28T15:00:30;3.90;81.50
19888;DHT22;10106;51.332;12.336;2023-02-28T15:02:58;3.90;82.30
19888;DHT22;10106;51.332;12.336;2023-02-28T15:08:03;3.90;82.50
19888;DHT22;10106;51.332;12.336;2023-02-28T15:10:30;3.90;84.30
19888;DHT22;10106;51.332;12.336;2023-02-28T15:15:56;3.80;82.60
19888;DHT22;10106;51.332;12.336;2023-02-28T15:20:56;3.70;83.00
19888;DHT22;10106;51.332;12.336;2023-02-28T15:23:23;3.70;83.00
19888;DHT22;10106;51.332;12.336;2023-02-28T15:25:50;3.70;84.20
19888;DHT22;10106;51.332;12.336;2023-02-28T15:28:20;3.70;83.50
19888;DHT22;10106;51.332;12.336;2023-02-28T15:30:58;3.60;83.60
19888;DHT22;10106;51.332;12.336;2023-02-28T15:33:27;3.60;83.40
19888;DHT22;10106;51.332;12.336;2023-02-28T15:36:14;3.60;83.80
19888;DHT22;10106;51.332;12.336;2023-02-28T15:38:42;3.50;84.00
19888;DHT22;10106;51.332;12.336;2023-02-28T15:41:25;3.50;84.40
19888;DHT22;10106;51.332;12.336;2023-02-28T15:44:13;3.50;84.40
19888;DHT22;10106;51.332;12.336;2023-02-28T15:46:43;3.50;85.10
19888;DHT22;10106;51.332;12.336;2023-02-28T15:49:19;3.50;85.00
19888;DHT22;10106;51.332;12.336;2023-02-28T15:51:47;3.50;85.30
19888;DHT22;10106;51.332;12.336;2023-02-28T15:54:24;3.50;85.40
19888;DHT22;10106;51.332;12.336;2023-02-28T15:56:54;3.40;85.60
19888;DHT22;10106;51.332;12.336;2023-02-28T15:59:28;3.40;85.90
19888;DHT22;10106;51.332;12.336;2023-02-28T16:02:16;3.30;86.20
19888;DHT22;10106;51.332;12.336;2023-02-28T16:07:38;3.30;86.90
19888;DHT22;10106;51.332;12.336;2023-02-28T16:10:05;3.20;87.60
19888;DHT22;10106;51.332;12.336;2023-02-28T16:12:33;3.20;87.70
19888;DHT22;10106;51.332;12.336;2023-02-28T16:15:03;3.20;87.80
19888;DHT22;10106;51.332;12.336;2023-02-28T16:17:38;3.10;88.60
19888;DHT22;10106;51.332;12.336;2023-02-28T16:20:18;3.10;88.40
19888;DHT22;10106;51.332;12.336;2023-02-28T16:22:44;3.10;88.80
19888;DHT22;10106;51.332;12.336;2023-02-28T16:25:16;3.00;89.20
19888;DHT22;10106;51.332;12.336;2023-02-28T16:27:43;3.00;89.90
19888;DHT22;10106;51.332;12.336;2023-02-28T16:30:21;2.90;90.20
19888;DHT22;10106;51.332;12.336;2023-02-28T16:32:48;2.90;90.90
19888;DHT22;10106;51.332;12.336;2023-02-28T16:35:14;2.90;91.00
19888;DHT22;10106;51.332;12.336;2023-02-28T16:37:40;2.80;91.50
19888;DHT22;10106;51.332;12.336;2023-02-28T16:40:09;2.70;91.80
19888;DHT22;10106;51.332;12.336;2023-02-28T16:42:34;2.70;92.10
19888;DHT22;10106;51.332;12.336;2023-02-28T16:45:03;2.60;92.50
19888;DHT22;10106;51.332;12.336;2023-02-28T16:47:28;2.60;92.70
19888;DHT22;10106;51.332;12.336;2023-02-28T16:49:57;2.60;92.90
19888;DHT22;10106;51.332;12.336;2023-02-28T16:52:22;2.50;93.20
19888;DHT22;10106;51.332;12.336;2023-02-28T16:54:48;2.40;93.50
19888;DHT22;10106;51.332;12.336;2023-02-28T16:57:20;2.30;94.10
19888;DHT22;10106;51.332;12.336;2023-02-28T16:59:48;2.20;94.40
19888;DHT22;10106;51.332;12.336;2023-02-28T17:02:15;2.20;94.80
19888;DHT22;10106;51.332;12.336;2023-02-28T17:04:42;2.20;95.00
19888;DHT22;10106;51.332;12.336;2023-02-28T17:07:13;2.10;95.60
19888;DHT22;10106;51.332;12.336;2023-02-28T17:09:39;2.10;95.90
19888;DHT22;10106;51.332;12.336;2023-02-28T17:12:06;2.00;96.40
19888;DHT22;10106;51.332;12.336;2023-02-28T17:14:32;2.00;96.90
19888;DHT22;10106;51.332;12.336;2023-02-28T17:16:57;1.90;97.40
19888;DHT22;10106;51.332;12.336;2023-02-28T17:19:23;1.90;98.00
19888;DHT22;10106;51.332;12.336;2023-02-28T17:21:48;1.80;98.50
19888;DHT22;10106;51.332;12.336;2023-02-28T17:24:14;1.80;99.00
19888;DHT22;10106;51.332;12.336;2023-02-28T17:26:46;1.80;99.40
19888;DHT22;10106;51.332;12.336;2023-02-28T17:29:18;1.80;99.80
19888;DHT22;10106;51.332;12.336;2023-02-28T17:31:44;1.70;99.90
19888;DHT22;10106;51.332;12.336;2023-02-28T17:34:11;1.70;99.90
19888;DHT22;10106;51.332;12.336;2023-02-28T17:36:37;1.70;99.90
19888;DHT22;10106;51.332;12.336;2023-02-28T17:39:09;1.70;99.90
19888;DHT22;10106;51.332;12.336;2023-02-28T17:41:36;1.70;99.90
19888;DHT22;10106;51.332;12.336;2023-02-28T17:44:02;1.60;99.90
19888;DHT22;10106;51.332;12.336;2023-02-28T17:46:27;1.50;99.90
19888;DHT22;10106;51.332;12.336;2023-02-28T17:48:54;1.40;99.90
19888;DHT22;10106;51.332;12.336;2023-02-28T17:51:21;1.30;99.90
19888;DHT22;10106;51.332;12.336;2023-02-28T17:53:47;1.20;99.90
19888;DHT22;10106;51.332;12.336;2023-02-28T17:56:24;1.10;99.90
19888;DHT22;10106;51.332;12.336;2023-02-28T17:58:53;1.20;99.90
19888;DHT22;10106;51.332;12.336;2023-02-28T18:01:19;1.10;99.90
19888;DHT22;10106;51.332;12.336;2023-02-28T18:03:46;1.10;99.90
19888;DHT22;10106;51.332;12.336;2023-02-28T18:06:22;1.20;99.90
19888;DHT22;10106;51.332;12.336;2023-02-28T18:08:49;1.10;99.90
19888;DHT22;10106;51.332;12.336;2023-02-28T18:11:18;1.00;99.90
19888;DHT22;10106;51.332;12.336;2023-02-28T18:13:49;0.80;99.90
19888;DHT22;10106;51.332;12.336;2023-02-28T18:16:15;0.70;99.90
19888;DHT22;10106;51.332;12.336;2023-02-28T18:18:41;0.60;99.90
19888;DHT22;10106;51.332;12.336;2023-02-28T18:21:10;0.60;99.90
19888;DHT22;10106;51.332;12.336;2023-02-28T18:23:36;0.50;99.90
19888;DHT22;10106;51.332;12.336;2023-02-28T18:26:06;0.50;99.90
19888;DHT22;10106;51.332;12.336;2023-02-28T18:28:32;0.50;99.90
19888;DHT22;10106;51.332;12.336;2023-02-28T18:31:06;0.40;99.90
19888;DHT22;10106;51.332;12.336;2023-02-28T18:33:35;0.40;99.90
19888;DHT22;10106;51.332;12.336;2023-02-28T18:36:01;0.40;99.90
19888;DHT22;10106;51.332;12.336;2023-02-28T18:38:26;0.40;99.90
19888;DHT22;10106;51.332;12.336;2023-02-28T18:40:58;0.40;99.90
19888;DHT22;10106;51.332;12.336;2023-02-28T18:43:25;0.30;99.90